Terminal Aerodrome Forecast
Issued by NWS

Home | Current Version | Previous Version | Text Only | Print | Product List | Glossary On
Versions: 1 2 3 4 5 6 7 8 9 10 11 12 13 14 15 16 17 18 19 20 21 22 23 24 25 26 27
000
FTUS43 KLSX 212344
TAFUIN
TAF
KUIN 212344Z 2200/2224 VRB04KT P6SM SCT025
     FM220600 VRB04KT 5SM BR SKC
     FM220900 VRB04KT 1/2SM FG SCT002
     FM221500 20008KT 5SM BR SCT010
     FM221800 20011KT P6SM SKC=

USA.gov is the U.S. government's official web portal to all federal, state and local government web resources and services.